Time;durP1;ratioP1;P1;durP2;ratioP2;P2;SDS_P1;SDS_P2;PMS_P1;PMS_P2;Temp;Humidity;BMP_temperature;BMP_pressure;BME280_temperature;BME280_humidity;BME280_pressure;Samples;Min_cycle;Max_cycle;Signal;HPM_P1;HPM_P2
2023/05/24 00:01:34;;;;;;;19.00;5.32;;;8.20;99.90;;;;;;5056277;28;20041;-84
2023/05/24 00:03:59;;;;;;;22.73;5.70;;;8.20;99.90;;;;;;5039521;28;20047;-84
2023/05/24 00:06:26;;;;;;;25.08;6.35;;;8.60;99.90;;;;;;5016324;28;20045;-84
2023/05/24 00:08:52;;;;;;;25.63;5.07;;;8.30;99.90;;;;;;5058419;28;20045;-84
2023/05/24 00:11:18;;;;;;;25.92;5.90;;;8.40;99.90;;;;;;5021106;28;20061;-84
2023/05/24 00:13:44;;;;;;;21.60;4.57;;;8.30;99.90;;;;;;5032797;28;20079;-84
2023/05/24 00:16:10;;;;;;;19.50;5.50;;;8.30;99.90;;;;;;5021153;28;20064;-84
2023/05/24 00:18:39;;;;;;;24.02;5.53;;;8.30;99.90;;;;;;5054259;28;20384;-84
2023/05/24 00:21:09;;;;;;;19.45;5.43;;;8.30;99.90;;;;;;5029195;28;20032;-84
2023/05/24 00:23:35;;;;;;;20.10;5.05;;;8.30;99.90;;;;;;5036227;28;20044;-84
2023/05/24 00:26:02;;;;;;;25.33;6.32;;;8.20;99.90;;;;;;5034598;28;20108;-84
2023/05/24 00:28:28;;;;;;;23.33;5.60;;;8.30;99.90;;;;;;5038624;28;20097;-84
2023/05/24 00:30:54;;;;;;;30.02;6.10;;;8.30;99.90;;;;;;5039002;28;20119;-84
2023/05/24 00:33:22;;;;;;;21.85;6.25;;;8.30;99.90;;;;;;5033058;28;20069;-84
2023/05/24 00:35:48;;;;;;;18.73;5.75;;;8.30;99.90;;;;;;5033979;28;20044;-84
2023/05/24 00:38:14;;;;;;;23.63;5.15;;;8.40;99.90;;;;;;5035122;28;20029;-84
2023/05/24 00:40:40;;;;;;;18.30;4.95;;;8.30;99.90;;;;;;5034923;28;20119;-84
2023/05/24 00:43:05;;;;;;;26.27;5.95;;;8.40;99.90;;;;;;5015708;28;20475;-84
2023/05/24 00:45:31;;;;;;;25.38;6.15;;;8.50;99.90;;;;;;5035653;28;20045;-84
2023/05/24 00:47:57;;;;;;;23.88;5.75;;;8.50;99.90;;;;;;5020416;28;20076;-84
2023/05/24 00:50:23;;;;;;;22.83;5.38;;;8.50;99.90;;;;;;5056110;28;20098;-84
2023/05/24 00:52:50;;;;;;;26.85;5.68;;;8.50;99.90;;;;;;5056064;28;20047;-84
2023/05/24 00:55:16;;;;;;;27.75;6.82;;;8.50;99.90;;;;;;5038627;28;20090;-84
2023/05/24 00:57:42;;;;;;;25.40;5.70;;;8.50;99.90;;;;;;5032497;28;20037;-84
2023/05/24 01:00:10;;;;;;;28.45;6.20;;;8.50;99.90;;;;;;5051101;28;20033;-84
2023/05/24 01:02:36;;;;;;;24.08;5.68;;;8.40;99.90;;;;;;5048897;28;20045;-84
2023/05/24 01:05:03;;;;;;;20.13;5.43;;;8.40;99.90;;;;;;5012706;28;20766;-84
2023/05/24 01:08:10;;;;;;;28.23;6.50;;;8.40;99.90;;;;;;5033237;28;20120;-84
2023/05/24 01:10:53;;;;;;;21.52;5.55;;;8.40;99.90;;;;;;5022679;28;20041;-84
2023/05/24 01:13:22;;;;;;;21.30;5.80;;;8.40;99.90;;;;;;5020700;28;20033;-84
2023/05/24 01:16:08;;;;;;;22.88;5.70;;;8.40;99.90;;;;;;5020308;28;20036;-85
2023/05/24 01:18:40;;;;;;;25.42;5.97;;;8.40;99.90;;;;;;5036597;28;20032;-83
2023/05/24 01:21:11;;;;;;;23.95;5.68;;;8.40;99.90;;;;;;5053605;28;20376;-84
2023/05/24 01:24:22;;;;;;;21.88;6.18;;;8.40;99.90;;;;;;5037875;28;20080;-85
2023/05/24 01:27:06;;;;;;;26.75;5.25;;;8.40;99.90;;;;;;5032187;28;21522;-84
2023/05/24 01:29:34;;;;;;;24.05;5.65;;;8.40;99.90;;;;;;5030516;28;20045;-84
2023/05/24 01:32:01;;;;;;;29.92;6.63;;;8.30;99.90;;;;;;5013455;28;20086;-84
2023/05/24 01:34:26;;;;;;;23.25;5.80;;;8.30;99.90;;;;;;5032508;28;20040;-84
2023/05/24 01:36:52;;;;;;;27.00;6.18;;;8.40;99.90;;;;;;5053348;28;20472;-84
2023/05/24 01:39:19;;;;;;;24.85;5.78;;;8.40;99.90;;;;;;5036057;28;20534;-84
2023/05/24 01:41:58;;;;;;;25.38;5.55;;;8.20;99.90;;;;;;5035405;28;20391;-84
2023/05/24 01:44:31;;;;;;;21.90;5.30;;;8.30;99.90;;;;;;5033754;28;20475;-84
2023/05/24 01:47:09;;;;;;;27.48;7.43;;;8.20;99.90;;;;;;5034912;28;20052;-84
2023/05/24 01:49:41;;;;;;;22.30;5.95;;;8.20;99.90;;;;;;5031806;28;20053;-84
2023/05/24 01:52:18;;;;;;;25.58;5.90;;;8.20;99.90;;;;;;5032922;28;20182;-84
2023/05/24 01:54:49;;;;;;;25.35;5.75;;;8.20;99.90;;;;;;5028087;28;20064;-84
2023/05/24 01:57:17;;;;;;;22.77;5.75;;;8.20;99.90;;;;;;5029333;28;20057;-84
2023/05/24 01:59:44;;;;;;;25.23;4.93;;;8.20;99.90;;;;;;5028106;28;20095;-83
2023/05/24 02:02:10;;;;;;;23.42;5.22;;;8.20;99.90;;;;;;5029893;28;20056;-84
2023/05/24 02:04:36;;;;;;;21.60;5.53;;;8.10;99.90;;;;;;5037104;28;20064;-84
2023/05/24 02:07:02;;;;;;;28.52;6.05;;;8.10;99.90;;;;;;5030964;28;21167;-84
2023/05/24 02:09:28;;;;;;;23.95;5.47;;;8.20;99.90;;;;;;5050427;28;20033;-84
2023/05/24 02:11:55;;;;;;;25.55;5.43;;;8.20;99.90;;;;;;5033979;28;20596;-84
2023/05/24 02:14:20;;;;;;;28.30;5.55;;;8.10;99.90;;;;;;5019127;28;20044;-84
2023/05/24 02:16:46;;;;;;;28.77;6.35;;;8.20;99.90;;;;;;5035333;28;20033;-84
2023/05/24 02:19:16;;;;;;;21.38;5.28;;;8.10;99.90;;;;;;5034282;28;20060;-84
2023/05/24 02:21:41;;;;;;;23.50;4.95;;;8.10;99.90;;;;;;5033264;28;20406;-84
2023/05/24 02:24:10;;;;;;;25.60;5.47;;;8.10;99.90;;;;;;5034821;28;20041;-83
2023/05/24 02:26:36;;;;;;;22.25;5.15;;;8.10;99.90;;;;;;5033018;28;20046;-84
2023/05/24 02:29:02;;;;;;;18.98;5.55;;;8.00;99.90;;;;;;5016666;28;20053;-84
2023/05/24 02:31:28;;;;;;;19.35;4.75;;;8.00;99.90;;;;;;5048391;28;20064;-84
2023/05/24 02:33:55;;;;;;;25.58;5.68;;;8.10;99.90;;;;;;5032764;28;20048;-84
2023/05/24 02:36:22;;;;;;;24.00;5.30;;;8.00;99.90;;;;;;5051398;28;20040;-84
2023/05/24 02:38:49;;;;;;;18.95;4.97;;;8.10;99.90;;;;;;5018509;28;20057;-83
2023/05/24 02:41:17;;;;;;;27.38;4.90;;;8.00;99.90;;;;;;5049856;28;20041;-84
2023/05/24 02:43:43;;;;;;;18.85;4.93;;;7.90;99.90;;;;;;5049623;28;20028;-84
2023/05/24 02:46:09;;;;;;;20.58;4.78;;;8.00;99.90;;;;;;5034864;28;20032;-84
2023/05/24 02:48:35;;;;;;;16.63;4.25;;;8.50;99.90;;;;;;5029513;28;20037;-84
2023/05/24 02:51:02;;;;;;;25.10;6.68;;;7.90;99.90;;;;;;5031115;28;20903;-84
2023/05/24 02:53:31;;;;;;;18.90;4.60;;;7.90;99.90;;;;;;5047316;28;20041;-84
2023/05/24 02:55:57;;;;;;;21.92;4.95;;;7.90;99.90;;;;;;5029410;28;20044;-83
2023/05/24 02:58:23;;;;;;;27.75;6.50;;;7.90;99.90;;;;;;5029445;28;20041;-84
2023/05/24 03:00:49;;;;;;;24.55;5.35;;;8.00;99.90;;;;;;5026238;28;20045;-83
2023/05/24 03:03:15;;;;;;;30.75;5.15;;;7.90;99.90;;;;;;5029234;28;20038;-84
2023/05/24 03:05:41;;;;;;;23.50;5.82;;;8.00;99.90;;;;;;5033266;28;20033;-84
2023/05/24 03:08:07;;;;;;;18.38;5.20;;;8.00;99.90;;;;;;5012517;28;20052;-84
2023/05/24 03:10:32;;;;;;;19.95;5.05;;;8.00;99.90;;;;;;5035428;28;20044;-84
2023/05/24 03:12:58;;;;;;;23.15;5.03;;;8.00;99.90;;;;;;5034093;28;20045;-84
2023/05/24 03:15:23;;;;;;;19.88;4.60;;;8.00;99.90;;;;;;5032873;28;20053;-83
2023/05/24 03:17:49;;;;;;;26.55;4.80;;;8.10;99.90;;;;;;5015457;28;20036;-84
2023/05/24 03:20:16;;;;;;;25.20;4.93;;;7.90;99.90;;;;;;5034996;28;20049;-84
2023/05/24 03:22:41;;;;;;;19.20;5.18;;;8.00;99.90;;;;;;5028635;28;20041;-83
2023/05/24 03:25:08;;;;;;;20.70;5.22;;;8.10;99.90;;;;;;5047901;28;20533;-84
2023/05/24 03:27:35;;;;;;;29.25;5.63;;;8.10;99.90;;;;;;5034607;28;20494;-84
2023/05/24 03:30:01;;;;;;;19.80;5.40;;;8.10;99.90;;;;;;5048176;28;20037;-83
2023/05/24 03:32:27;;;;;;;19.73;5.15;;;8.10;99.90;;;;;;5037111;28;20060;-84
2023/05/24 03:34:53;;;;;;;23.42;6.28;;;8.10;99.90;;;;;;5035034;28;20033;-84
2023/05/24 03:37:19;;;;;;;16.98;4.50;;;8.60;99.90;;;;;;5035142;28;20037;-83
2023/05/24 03:39:44;;;;;;;23.45;5.57;;;8.10;99.90;;;;;;5039560;28;20049;-84
2023/05/24 03:42:10;;;;;;;17.35;4.45;;;8.10;99.90;;;;;;5031632;28;20087;-83
2023/05/24 03:44:36;;;;;;;23.42;5.68;;;8.10;99.90;;;;;;5032168;28;20037;-83
2023/05/24 03:47:02;;;;;;;21.75;5.35;;;8.10;99.90;;;;;;5047181;28;20052;-83
2023/05/24 03:49:28;;;;;;;31.85;5.55;;;8.20;99.90;;;;;;5050121;28;20507;-84
2023/05/24 03:51:53;;;;;;;18.35;4.80;;;8.10;99.90;;;;;;5033000;28;20074;-83
2023/05/24 03:54:19;;;;;;;22.80;5.43;;;8.10;99.90;;;;;;5033934;28;20139;-84
2023/05/24 03:56:45;;;;;;;26.35;5.18;;;8.20;99.90;;;;;;5038295;28;20497;-84
2023/05/24 03:59:11;;;;;;;20.35;5.10;;;8.20;99.90;;;;;;5035582;28;20079;-84
2023/05/24 04:01:37;;;;;;;26.80;4.03;;;8.20;99.90;;;;;;5015576;28;20415;-84
2023/05/24 04:04:05;;;;;;;21.60;4.88;;;8.20;99.90;;;;;;5021695;28;20079;-84
2023/05/24 04:06:31;;;;;;;26.90;5.00;;;8.30;99.90;;;;;;5019651;28;20076;-84
2023/05/24 04:08:58;;;;;;;21.65;5.32;;;8.30;99.90;;;;;;5035687;28;20068;-84
2023/05/24 04:11:27;;;;;;;26.38;5.40;;;8.30;99.90;;;;;;5059827;28;20063;-84
2023/05/24 04:13:59;;;;;;;15.23;4.63;;;8.40;99.90;;;;;;5053241;28;20079;-83
2023/05/24 04:16:26;;;;;;;21.02;4.57;;;8.40;99.90;;;;;;5033116;28;20510;-84
2023/05/24 04:18:55;;;;;;;15.32;4.72;;;9.00;99.90;;;;;;5029944;28;20059;-84
2023/05/24 04:21:20;;;;;;;21.30;5.20;;;8.50;99.90;;;;;;5036358;28;20068;-83
2023/05/24 04:23:46;;;;;;;24.02;4.97;;;8.60;99.90;;;;;;5039004;28;20380;-83
2023/05/24 04:26:13;;;;;;;20.23;4.95;;;8.60;99.90;;;;;;5034794;28;20054;-83
2023/05/24 04:28:39;;;;;;;21.52;5.32;;;8.70;99.90;;;;;;5038057;28;20055;-83
2023/05/24 04:31:06;;;;;;;22.77;5.03;;;8.70;99.90;;;;;;5045975;28;20057;-83
2023/05/24 04:33:38;;;;;;;23.23;4.72;;;8.80;99.90;;;;;;5036051;28;20033;-84
2023/05/24 04:36:35;;;;;;;19.25;4.15;;;8.80;99.90;;;;;;5055389;28;20080;-86
2023/05/24 04:39:03;;;;;;;23.02;4.57;;;8.90;99.90;;;;;;5018657;28;20544;-84
2023/05/24 04:41:34;;;;;;;18.67;5.20;;;8.90;99.90;;;;;;5048755;28;20045;-84
2023/05/24 04:43:59;;;;;;;22.50;5.75;;;9.00;99.90;;;;;;5049504;28;20033;-85
2023/05/24 04:46:27;;;;;;;14.10;4.25;;;9.10;99.90;;;;;;5030425;28;20037;-85
2023/05/24 04:48:53;;;;;;;24.42;5.22;;;9.10;99.90;;;;;;5038146;28;20069;-85
2023/05/24 04:51:21;;;;;;;17.38;4.20;;;9.10;99.90;;;;;;5035158;28;20067;-83
2023/05/24 04:53:47;;;;;;;19.73;4.45;;;9.20;99.90;;;;;;5038393;28;20041;-84
2023/05/24 04:56:15;;;;;;;21.65;4.68;;;9.20;99.90;;;;;;5016345;28;20236;-83
2023/05/24 04:58:41;;;;;;;23.80;4.38;;;9.30;99.90;;;;;;5036992;28;20036;-84
2023/05/24 05:01:07;;;;;;;21.80;5.05;;;9.30;99.90;;;;;;5055374;28;20096;-83
2023/05/24 05:03:33;;;;;;;19.13;4.38;;;9.30;99.90;;;;;;5046131;28;20040;-84
2023/05/24 05:05:58;;;;;;;19.55;4.85;;;9.30;99.90;;;;;;5034362;28;20067;-84
2023/05/24 05:08:24;;;;;;;21.70;5.30;;;9.40;99.90;;;;;;5052492;28;20033;-84
2023/05/24 05:10:49;;;;;;;21.15;5.13;;;9.40;99.90;;;;;;5033134;28;20072;-83
2023/05/24 05:13:15;;;;;;;18.65;5.25;;;9.50;99.90;;;;;;5055194;28;20048;-83
2023/05/24 05:15:40;;;;;;;28.88;5.80;;;9.60;99.90;;;;;;5041232;28;20040;-85
2023/05/24 05:18:06;;;;;;;22.08;4.57;;;9.60;99.90;;;;;;5031875;28;20083;-83
2023/05/24 05:20:32;;;;;;;18.25;5.45;;;9.70;99.90;;;;;;5036161;28;20502;-83
2023/05/24 05:23:00;;;;;;;16.38;4.95;;;9.80;99.90;;;;;;5037176;28;20526;-84
2023/05/24 05:25:26;;;;;;;21.98;4.40;;;9.90;99.90;;;;;;5019527;28;20071;-83
2023/05/24 05:27:51;;;;;;;22.05;4.43;;;10.20;99.90;;;;;;5030754;28;20696;-84
2023/05/24 05:30:17;;;;;;;15.35;4.15;;;10.40;99.90;;;;;;5053186;28;20037;-82
2023/05/24 05:32:42;;;;;;;17.58;3.75;;;10.60;99.90;;;;;;5037616;28;20039;-82
2023/05/24 05:35:08;;;;;;;18.92;4.03;;;10.80;99.90;;;;;;5057151;28;20048;-82
2023/05/24 05:37:34;;;;;;;17.35;3.75;;;10.90;99.90;;;;;;5055058;28;20029;-84
2023/05/24 05:39:59;;;;;;;27.23;5.93;;;11.10;99.90;;;;;;5035475;28;20068;-83
2023/05/24 05:42:25;;;;;;;16.40;3.85;;;11.60;99.90;;;;;;5052415;28;20044;-83
2023/05/24 05:44:51;;;;;;;18.30;3.55;;;12.10;99.90;;;;;;5038923;28;20037;-83
2023/05/24 05:47:17;;;;;;;14.40;3.60;;;12.60;99.90;;;;;;5040413;28;20033;-83
2023/05/24 05:49:42;;;;;;;16.25;4.70;;;12.80;99.90;;;;;;5059968;28;20041;-85
2023/05/24 05:52:08;;;;;;;16.48;3.75;;;12.70;99.90;;;;;;5026497;28;20038;-83
2023/05/24 05:54:34;;;;;;;21.58;4.32;;;12.70;99.90;;;;;;5035028;28;20104;-84
2023/05/24 05:56:59;;;;;;;18.85;5.35;;;12.60;99.90;;;;;;5048033;28;20041;-82
2023/05/24 05:59:26;;;;;;;23.10;4.82;;;12.50;99.90;;;;;;5052812;28;20045;-85
2023/05/24 06:01:51;;;;;;;21.55;4.40;;;12.40;99.90;;;;;;5035254;28;20041;-84
2023/05/24 06:04:17;;;;;;;15.50;4.13;;;12.20;99.90;;;;;;5031348;28;20048;-84
2023/05/24 06:06:44;;;;;;;19.65;4.00;;;12.10;99.90;;;;;;5049007;28;20044;-85
2023/05/24 06:09:13;;;;;;;16.27;4.93;;;12.10;99.90;;;;;;5037830;28;20049;-84
2023/05/24 06:11:41;;;;;;;21.15;5.10;;;12.10;99.90;;;;;;5035142;28;20045;-83
2023/05/24 06:14:27;;;;;;;18.25;4.60;;;12.10;99.90;;;;;;5031176;28;20036;-83
2023/05/24 06:16:53;;;;;;;25.30;4.65;;;12.10;99.90;;;;;;5045303;28;20032;-84
2023/05/24 06:19:19;;;;;;;19.05;4.35;;;12.10;99.90;;;;;;5030296;28;20032;-85
2023/05/24 06:21:47;;;;;;;19.17;5.13;;;12.30;99.90;;;;;;5032370;28;20047;-84
2023/05/24 06:24:14;;;;;;;22.48;4.82;;;12.20;99.90;;;;;;5050255;28;20059;-84
2023/05/24 06:26:40;;;;;;;22.67;4.68;;;12.40;99.90;;;;;;5021714;28;20045;-84
2023/05/24 06:29:06;;;;;;;19.73;3.95;;;12.50;99.90;;;;;;5032824;28;20040;-85
2023/05/24 06:31:31;;;;;;;22.05;4.63;;;12.60;99.90;;;;;;5032956;28;20446;-84
2023/05/24 06:33:57;;;;;;;17.60;5.07;;;12.70;99.90;;;;;;5012106;28;20072;-84
2023/05/24 06:36:23;;;;;;;19.67;4.20;;;12.90;99.90;;;;;;5016112;28;20502;-86
2023/05/24 06:38:49;;;;;;;21.98;5.00;;;13.00;99.90;;;;;;5017010;28;20033;-84
2023/05/24 06:41:15;;;;;;;21.30;3.60;;;13.10;99.90;;;;;;5050353;28;20033;-84
2023/05/24 06:43:40;;;;;;;17.55;3.50;;;13.10;99.90;;;;;;5035610;28;20743;-85
2023/05/24 06:46:06;;;;;;;17.73;3.92;;;13.10;99.90;;;;;;5035394;28;20072;-84
2023/05/24 06:48:32;;;;;;;27.30;4.38;;;13.20;99.90;;;;;;5030775;28;20037;-84
2023/05/24 06:50:57;;;;;;;14.07;3.22;;;13.30;99.90;;;;;;5030513;28;20487;-84
2023/05/24 06:53:23;;;;;;;16.13;4.05;;;13.40;99.90;;;;;;5033928;28;20110;-84
2023/05/24 06:55:48;;;;;;;20.75;4.70;;;13.40;99.90;;;;;;5030251;28;20037;-84
2023/05/24 06:58:14;;;;;;;24.13;5.57;;;13.50;99.90;;;;;;5032525;28;20041;-83
2023/05/24 07:00:41;;;;;;;18.08;5.10;;;13.60;99.90;;;;;;5036635;28;20487;-85
2023/05/24 07:03:08;;;;;;;21.83;4.18;;;13.60;99.90;;;;;;5013302;28;20033;-84
2023/05/24 07:05:34;;;;;;;17.83;4.15;;;13.70;99.90;;;;;;5009850;28;20087;-84
2023/05/24 07:08:00;;;;;;;12.23;3.78;;;13.80;99.90;;;;;;5017100;28;20079;-84
2023/05/24 07:10:26;;;;;;;16.08;4.35;;;14.10;99.90;;;;;;5032080;28;20064;-84
2023/05/24 07:12:51;;;;;;;18.98;4.10;;;14.40;99.90;;;;;;5051368;28;20717;-85
2023/05/24 07:15:17;;;;;;;20.63;4.72;;;14.70;99.90;;;;;;5054097;28;20029;-84
2023/05/24 07:17:43;;;;;;;15.20;3.53;;;14.80;99.90;;;;;;5049410;28;20041;-83
2023/05/24 07:20:09;;;;;;;13.20;2.90;;;14.90;99.90;;;;;;5021667;28;20123;-85
2023/05/24 07:22:35;;;;;;;13.18;3.08;;;14.90;99.90;;;;;;5007923;28;20056;-85
2023/05/24 07:25:01;;;;;;;15.70;3.33;;;14.80;99.90;;;;;;5028412;28;20037;-84
2023/05/24 07:27:27;;;;;;;14.10;2.72;;;14.60;99.90;;;;;;5033832;28;20041;-84
2023/05/24 07:29:53;;;;;;;11.10;2.80;;;14.60;99.90;;;;;;5038177;28;20510;-85
2023/05/24 07:32:18;;;;;;;14.27;2.78;;;14.50;99.90;;;;;;5036191;28;20095;-86
2023/05/24 07:34:44;;;;;;;14.90;3.50;;;14.40;99.90;;;;;;5040508;28;20029;-84
2023/05/24 07:37:10;;;;;;;12.07;2.50;;;14.40;99.90;;;;;;5023415;28;20058;-84
2023/05/24 07:39:36;;;;;;;16.65;2.95;;;14.50;99.90;;;;;;5035364;28;20045;-84
2023/05/24 07:42:03;;;;;;;13.18;2.53;;;14.50;99.90;;;;;;5028902;28;20036;-84
2023/05/24 07:44:28;;;;;;;11.90;3.05;;;14.80;99.90;;;;;;5025759;28;20053;-84
2023/05/24 07:46:54;;;;;;;12.93;2.97;;;15.20;99.90;;;;;;5036493;28;20063;-84
2023/05/24 07:49:20;;;;;;;12.88;2.65;;;15.50;99.90;;;;;;5039412;28;20037;-84
2023/05/24 07:51:47;;;;;;;9.32;2.13;;;15.50;99.90;;;;;;5021646;28;20045;-84
2023/05/24 07:54:13;;;;;;;10.07;2.53;;;15.70;99.90;;;;;;5049813;28;20184;-83
2023/05/24 07:56:40;;;;;;;10.57;3.40;;;15.90;99.90;;;;;;5051776;28;20472;-83
2023/05/24 07:59:06;;;;;;;16.88;2.85;;;16.00;99.90;;;;;;5037347;28;20092;-85
2023/05/24 08:01:36;;;;;;;12.10;2.50;;;16.10;99.90;;;;;;5033056;28;20055;-84
2023/05/24 08:04:07;;;;;;;9.48;2.28;;;16.10;99.90;;;;;;5032518;28;20055;-85
2023/05/24 08:06:34;;;;;;;9.90;1.98;;;15.90;99.90;;;;;;5030815;28;20040;-85
2023/05/24 08:09:04;;;;;;;10.20;2.92;;;15.80;99.90;;;;;;5036875;28;20064;-85
2023/05/24 08:11:30;;;;;;;9.18;2.10;;;15.60;99.90;;;;;;5052464;28;20036;-84
2023/05/24 08:13:55;;;;;;;11.43;2.28;;;15.40;99.90;;;;;;5053955;28;20513;-85
2023/05/24 08:16:22;;;;;;;9.80;2.20;;;15.30;99.90;;;;;;5052113;28;20091;-85
2023/05/24 08:18:47;;;;;;;11.00;2.83;;;15.20;99.90;;;;;;5018068;28;20063;-85
2023/05/24 08:21:14;;;;;;;10.65;2.13;;;15.00;99.90;;;;;;5049238;28;20490;-85
2023/05/24 08:23:40;;;;;;;10.52;3.08;;;14.90;99.90;;;;;;5035112;28;20049;-85
2023/05/24 08:26:05;;;;;;;10.55;2.92;;;15.30;99.90;;;;;;5034307;28;20045;-85
2023/05/24 08:28:31;;;;;;;8.55;3.33;;;15.60;99.90;;;;;;5032540;28;20095;-86
2023/05/24 08:30:58;;;;;;;8.48;2.03;;;15.70;99.90;;;;;;5034379;28;20482;-84
2023/05/24 08:33:23;;;;;;;12.00;2.95;;;15.80;99.90;;;;;;5034245;28;20033;-85
2023/05/24 08:35:56;;;;;;;11.45;2.70;;;15.70;99.90;;;;;;5035399;28;20436;-85
2023/05/24 08:38:21;;;;;;;11.00;2.60;;;15.60;99.90;;;;;;5035423;28;20033;-85
2023/05/24 08:40:47;;;;;;;13.00;3.33;;;15.60;99.90;;;;;;5015714;28;20046;-85
2023/05/24 08:43:14;;;;;;;9.60;2.45;;;15.50;99.90;;;;;;5047069;28;20093;-84
2023/05/24 08:45:40;;;;;;;14.40;3.38;;;15.80;99.90;;;;;;5016536;28;20124;-84
2023/05/24 08:48:07;;;;;;;10.90;2.53;;;15.80;99.90;;;;;;5034158;28;20048;-85
2023/05/24 08:50:34;;;;;;;13.57;2.67;;;15.80;99.90;;;;;;5021286;28;20037;-85
2023/05/24 08:53:05;;;;;;;12.40;2.53;;;15.90;99.90;;;;;;5015632;28;20029;-82
2023/05/24 08:55:31;;;;;;;17.08;3.33;;;16.30;99.90;;;;;;5030061;28;20048;-84
2023/05/24 08:57:58;;;;;;;12.23;2.50;;;15.80;99.90;;;;;;5028826;28;20052;-84
2023/05/24 09:00:25;;;;;;;13.48;3.38;;;16.10;99.90;;;;;;5054036;28;20178;-85
2023/05/24 09:02:52;;;;;;;12.02;2.67;;;16.40;99.90;;;;;;5034821;28;20403;-84
2023/05/24 09:05:20;;;;;;;12.38;3.03;;;16.90;99.90;;;;;;5032814;28;20065;-85
2023/05/24 09:07:48;;;;;;;11.93;2.83;;;17.30;99.90;;;;;;5032732;28;20677;-84
2023/05/24 09:10:14;;;;;;;12.02;3.33;;;17.50;99.90;;;;;;5031058;28;20407;-86
2023/05/24 09:12:47;;;;;;;7.50;2.35;;;17.70;99.90;;;;;;5034104;28;20068;-84
2023/05/24 09:15:15;;;;;;;10.57;2.55;;;17.90;99.90;;;;;;5031822;28;20086;-85
2023/05/24 09:17:48;;;;;;;;;;;17.90;99.90;;;;;;5022788;28;20045;-84
2023/05/24 09:20:14;;;;;;;;;;;17.70;99.90;;;;;;5021075;28;20317;-85
2023/05/24 09:22:45;;;;;;;11.68;2.75;;;17.90;99.90;;;;;;5018920;28;20303;-85
2023/05/24 09:25:34;;;;;;;7.30;2.00;;;17.20;99.90;;;;;;5022519;28;20121;-85
2023/05/24 09:28:06;;;;;;;8.55;2.38;;;17.20;99.90;;;;;;5037953;28;20036;-84
2023/05/24 09:30:32;;;;;;;8.80;2.67;;;17.50;99.90;;;;;;5033374;28;20055;-85
2023/05/24 09:32:59;;;;;;;9.38;2.38;;;17.40;99.90;;;;;;5036349;28;20406;-84
2023/05/24 09:35:27;;;;;;;8.10;1.92;;;17.30;99.90;;;;;;5036806;28;20375;-85
2023/05/24 09:37:58;;;;;;;9.15;1.88;;;17.30;99.90;;;;;;5043261;28;20132;-85
2023/05/24 09:40:25;;;;;;;6.50;1.90;;;17.60;99.90;;;;;;5053013;28;20097;-84
2023/05/24 09:43:08;;;;;;;8.93;2.75;;;17.90;99.90;;;;;;5056409;28;20044;-86
2023/05/24 09:45:41;;;;;;;5.80;1.75;;;18.00;99.90;;;;;;5033795;28;20037;-85
2023/05/24 09:48:16;;;;;;;6.53;2.75;;;18.00;99.90;;;;;;5036073;28;20044;-86
2023/05/24 09:50:48;;;;;;;8.75;2.28;;;17.80;99.90;;;;;;5032831;28;20072;-85
2023/05/24 09:53:17;;;;;;;7.90;2.22;;;17.90;99.90;;;;;;5035057;28;20114;-85
2023/05/24 09:55:49;;;;;;;8.55;2.30;;;17.80;99.90;;;;;;5033919;28;20040;-85
2023/05/24 09:58:16;;;;;;;7.88;2.50;;;18.00;99.90;;;;;;5052167;28;20044;-85
2023/05/24 10:00:41;;;;;;;9.32;2.25;;;18.10;99.90;;;;;;5046893;28;20033;-85
2023/05/24 10:03:10;;;;;;;11.57;3.53;;;18.00;99.90;;;;;;5025734;28;20486;-85
2023/05/24 10:05:36;;;;;;;7.38;2.90;;;17.90;99.90;;;;;;5053549;28;20044;-85
2023/05/24 10:08:08;;;;;;;9.30;3.60;;;17.80;99.90;;;;;;5050885;28;20041;-85
2023/05/24 10:10:33;;;;;;;9.55;3.53;;;17.80;99.90;;;;;;5016492;28;20118;-85
2023/05/24 10:13:01;;;;;;;7.88;2.70;;;17.70;99.90;;;;;;5032044;28;20061;-86
2023/05/24 10:15:28;;;;;;;13.38;3.97;;;17.80;99.90;;;;;;5030558;28;20037;-84
2023/05/24 10:17:55;;;;;;;10.18;3.75;;;17.80;99.90;;;;;;5052209;28;21458;-84
2023/05/24 10:20:22;;;;;;;11.43;3.50;;;17.80;99.90;;;;;;5048446;28;20118;-84
2023/05/24 10:22:51;;;;;;;10.50;3.42;;;17.40;99.90;;;;;;5015661;28;20040;-84
2023/05/24 10:25:21;;;;;;;8.57;2.60;;;17.30;99.90;;;;;;5033718;28;20095;-86
2023/05/24 10:27:50;;;;;;;9.43;3.30;;;17.30;99.90;;;;;;5031509;28;20037;-85
2023/05/24 10:30:39;;;;;;;10.38;2.63;;;17.70;99.90;;;;;;5028937;28;20044;-85
2023/05/24 10:33:06;;;;;;;8.55;2.72;;;18.10;99.90;;;;;;5016357;28;20041;-85
2023/05/24 10:35:36;;;;;;;8.63;2.55;;;18.20;99.90;;;;;;5037715;28;20052;-87
2023/05/24 10:38:06;;;;;;;10.75;2.38;;;18.00;99.90;;;;;;5031025;28;20060;-83
2023/05/24 10:40:39;;;;;;;7.43;2.20;;;17.80;99.90;;;;;;5048195;28;20045;-85
2023/05/24 10:43:06;;;;;;;9.43;2.63;;;17.60;99.90;;;;;;5031669;28;20033;-83
2023/05/24 10:45:41;;;;;;;7.70;1.85;;;17.20;99.90;;;;;;5035226;28;20331;-85
2023/05/24 10:48:12;;;;;;;7.75;1.70;;;17.00;99.90;;;;;;5032307;28;20045;-85
2023/05/24 10:50:43;;;;;;;5.57;1.60;;;17.10;99.90;;;;;;5049561;28;20128;-83
2023/05/24 10:53:14;;;;;;;7.35;1.88;;;17.30;99.90;;;;;;5043090;28;20410;-84
2023/05/24 10:55:53;;;;;;;7.07;1.88;;;17.50;99.90;;;;;;5013224;28;20040;-84
2023/05/24 10:58:25;;;;;;;5.38;1.55;;;17.60;99.90;;;;;;5016449;28;20091;-83
2023/05/24 11:00:52;;;;;;;6.03;2.03;;;17.40;99.90;;;;;;5006216;28;20563;-84
2023/05/24 11:03:23;;;;;;;9.05;2.45;;;17.20;99.90;;;;;;5038403;28;20040;-85
2023/05/24 11:05:53;;;;;;;5.85;1.85;;;16.90;99.90;;;;;;5054043;28;20037;-85
2023/05/24 11:08:23;;;;;;;6.03;1.95;;;16.70;99.90;;;;;;5034330;28;20487;-85
2023/05/24 11:11:06;;;;;;;5.43;1.50;;;16.50;99.90;;;;;;5036086;28;20088;-85
2023/05/24 11:13:32;;;;;;;9.98;2.55;;;16.40;99.90;;;;;;5047787;28;20047;-83
2023/05/24 11:16:00;;;;;;;5.13;1.70;;;16.20;99.90;;;;;;5018758;28;20043;-86
2023/05/24 11:18:26;;;;;;;7.25;1.52;;;16.20;99.90;;;;;;5036589;28;20037;-84
2023/05/24 11:20:52;;;;;;;6.30;2.00;;;16.20;99.90;;;;;;5052622;28;20052;-86
2023/05/24 11:23:18;;;;;;;9.15;1.60;;;16.20;99.90;;;;;;5033543;28;20045;-85
2023/05/24 11:25:46;;;;;;;7.10;1.65;;;16.00;99.90;;;;;;5028446;28;20033;-86
2023/05/24 11:28:12;;;;;;;7.78;2.20;;;15.90;99.90;;;;;;5036268;28;20528;-86
2023/05/24 11:30:45;;;;;;;9.88;1.92;;;15.90;99.90;;;;;;5035388;28;20450;-86
2023/05/24 11:33:17;;;;;;;6.30;1.92;;;15.90;99.90;;;;;;5018051;28;1018329;-86
2023/05/24 11:35:43;;;;;;;6.20;1.58;;;16.00;99.90;;;;;;5054000;28;20037;-85
2023/05/24 11:38:16;;;;;;;6.80;2.20;;;15.80;99.90;;;;;;5051616;28;20048;-86
2023/05/24 11:40:43;;;;;;;8.73;2.00;;;15.70;99.90;;;;;;5033112;28;20039;-85
2023/05/24 11:43:29;;;;;;;9.30;2.03;;;15.60;99.90;;;;;;5032569;28;20029;-87
2023/05/24 11:45:55;;;;;;;8.63;2.03;;;15.40;99.90;;;;;;5052808;28;20095;-86
2023/05/24 11:48:21;;;;;;;11.60;2.45;;;15.20;99.90;;;;;;5028506;28;20057;-85
2023/05/24 11:50:47;;;;;;;5.63;1.95;;;15.10;99.90;;;;;;5039941;28;20040;-85
2023/05/24 11:53:14;;;;;;;8.63;2.58;;;15.10;99.90;;;;;;5039534;28;20449;-86
2023/05/24 11:55:41;;;;;;;15.75;2.83;;;15.10;99.90;;;;;;5060018;28;20036;-86
2023/05/24 11:58:15;;;;;;;7.93;2.55;;;15.00;99.90;;;;;;5034803;28;20111;-84
2023/05/24 12:00:46;;;;;;;10.85;2.40;;;15.00;99.90;;;;;;5039273;28;20087;-85
2023/05/24 12:03:11;;;;;;;10.30;2.80;;;14.90;99.90;;;;;;5036164;28;20782;-85
2023/05/24 12:05:37;;;;;;;9.18;2.25;;;14.90;99.90;;;;;;5025003;28;20064;-85
2023/05/24 12:08:05;;;;;;;8.63;2.15;;;14.90;99.90;;;;;;5054444;28;20403;-84
2023/05/24 12:10:33;;;;;;;12.60;2.50;;;14.90;99.90;;;;;;5020966;28;20399;-84
2023/05/24 12:12:58;;;;;;;9.63;2.70;;;14.90;99.90;;;;;;5018522;28;20499;-85
2023/05/24 12:15:24;;;;;;;11.20;2.40;;;14.90;99.90;;;;;;5034517;28;20036;-85
2023/05/24 12:17:50;;;;;;;9.18;2.63;;;14.90;99.90;;;;;;5032847;28;20029;-85
2023/05/24 12:20:18;;;;;;;5.45;1.75;;;14.90;99.90;;;;;;5030920;28;20510;-84
2023/05/24 12:22:51;;;;;;;8.98;2.55;;;14.80;99.90;;;;;;5030527;28;20040;-85
2023/05/24 12:25:20;;;;;;;10.13;2.80;;;14.80;99.90;;;;;;5035077;28;20642;-86
2023/05/24 12:27:52;;;;;;;8.60;1.90;;;14.90;99.90;;;;;;5026061;28;20122;-85
2023/05/24 12:30:22;;;;;;;8.43;1.80;;;14.90;99.90;;;;;;5047135;28;20396;-85
2023/05/24 12:32:48;;;;;;;10.50;2.25;;;14.90;99.90;;;;;;5032145;28;20170;-86
2023/05/24 12:35:16;;;;;;;8.77;2.08;;;14.90;99.90;;;;;;5052943;28;20044;-85
2023/05/24 12:37:42;;;;;;;9.65;2.08;;;14.80;99.90;;;;;;5044946;28;20034;-84
2023/05/24 12:40:22;;;;;;;10.10;1.90;;;14.70;99.90;;;;;;5056522;28;20037;-85
2023/05/24 12:42:55;;;;;;;7.88;1.95;;;14.60;99.90;;;;;;5032133;28;20545;-84
2023/05/24 12:45:28;;;;;;;9.48;2.65;;;14.50;99.90;;;;;;5032059;28;20073;-84
2023/05/24 12:47:55;;;;;;;9.63;2.05;;;14.40;99.90;;;;;;5033090;28;20068;-85